Golden Valley, Nevada
Current Conditions -  °F | °C
As of 10:35 PM on Friday 19 Dec 2014 (Local Time) from KRTS Reporting Station
Overcast Overcast  
Wind Chill: 34°   Ceiling: 8500
Heat Index: 37°   Visibility: 10mi
Dew Point: 34°   Wind: 5mph
Humidity: 87%   Direction: 70°ENE
Pressure: 30.12"   Gusts: NA
Location:  39.7378°N, 119.889°W
Report Text: KRTS 200635Z AUTO 07004KT 10SM FEW065 OVC085 03/01 A3012 RMK AO2
Loading
Personal Weather Stations






























Interactive Weather Map New forecast layout! Learn more

10-Day Weather Forecast

Advertisements
Track Severe Weather on mobile